sensor_id;sensor_type;location;lat;lon;timestamp;temperature;humidity
20670;DHT22;10494;50.868;4.180;2023-04-25T00:00:10;8.60;99.90
20670;DHT22;10494;50.868;4.180;2023-04-25T00:02:36;8.70;99.90
20670;DHT22;10494;50.868;4.180;2023-04-25T00:05:02;8.80;99.90
20670;DHT22;10494;50.868;4.180;2023-04-25T00:07:28;8.90;99.90
20670;DHT22;10494;50.868;4.180;2023-04-25T00:09:54;9.10;99.90
20670;DHT22;10494;50.868;4.180;2023-04-25T00:12:20;9.10;99.90
20670;DHT22;10494;50.868;4.180;2023-04-25T00:14:47;9.10;99.90
20670;DHT22;10494;50.868;4.180;2023-04-25T00:17:15;9.20;99.90
20670;DHT22;10494;50.868;4.180;2023-04-25T00:19:42;9.30;99.90
20670;DHT22;10494;50.868;4.180;2023-04-25T00:22:10;9.40;99.90
20670;DHT22;10494;50.868;4.180;2023-04-25T00:24:36;9.50;99.90
20670;DHT22;10494;50.868;4.180;2023-04-25T00:27:01;9.40;99.90
20670;DHT22;10494;50.868;4.180;2023-04-25T00:29:27;9.40;99.90
20670;DHT22;10494;50.868;4.180;2023-04-25T00:31:53;9.50;99.90
20670;DHT22;10494;50.868;4.180;2023-04-25T00:34:18;9.40;99.90
20670;DHT22;10494;50.868;4.180;2023-04-25T00:36:44;9.50;99.90
20670;DHT22;10494;50.868;4.180;2023-04-25T00:39:10;9.50;99.90
20670;DHT22;10494;50.868;4.180;2023-04-25T00:41:37;9.50;99.90
20670;DHT22;10494;50.868;4.180;2023-04-25T00:44:04;9.20;99.90
20670;DHT22;10494;50.868;4.180;2023-04-25T00:46:32;9.00;99.90
20670;DHT22;10494;50.868;4.180;2023-04-25T00:48:57;8.90;99.90
20670;DHT22;10494;50.868;4.180;2023-04-25T00:51:24;8.70;99.90
20670;DHT22;10494;50.868;4.180;2023-04-25T00:53:51;8.50;99.90
20670;DHT22;10494;50.868;4.180;2023-04-25T00:56:16;8.50;99.90
20670;DHT22;10494;50.868;4.180;2023-04-25T00:58:43;8.50;99.90
20670;DHT22;10494;50.868;4.180;2023-04-25T01:01:09;8.50;99.90
20670;DHT22;10494;50.868;4.180;2023-04-25T01:03:37;8.40;99.90
20670;DHT22;10494;50.868;4.180;2023-04-25T01:06:08;8.30;99.90
20670;DHT22;10494;50.868;4.180;2023-04-25T01:08:34;8.40;99.90
20670;DHT22;10494;50.868;4.180;2023-04-25T01:11:01;8.40;99.90
20670;DHT22;10494;50.868;4.180;2023-04-25T01:13:27;8.40;99.90
20670;DHT22;10494;50.868;4.180;2023-04-25T01:15:52;8.40;99.90
20670;DHT22;10494;50.868;4.180;2023-04-25T01:18:19;8.50;99.90
20670;DHT22;10494;50.868;4.180;2023-04-25T01:20:46;8.60;99.90
20670;DHT22;10494;50.868;4.180;2023-04-25T01:23:13;8.70;99.90
20670;DHT22;10494;50.868;4.180;2023-04-25T01:25:39;8.70;99.90
20670;DHT22;10494;50.868;4.180;2023-04-25T01:28:05;8.60;99.90
20670;DHT22;10494;50.868;4.180;2023-04-25T01:30:31;8.50;99.90
20670;DHT22;10494;50.868;4.180;2023-04-25T01:32:57;8.40;99.90
20670;DHT22;10494;50.868;4.180;2023-04-25T01:35:24;8.40;99.90
20670;DHT22;10494;50.868;4.180;2023-04-25T01:37:51;8.40;99.90
20670;DHT22;10494;50.868;4.180;2023-04-25T01:40:17;8.30;99.90
20670;DHT22;10494;50.868;4.180;2023-04-25T01:42:44;8.20;99.90
20670;DHT22;10494;50.868;4.180;2023-04-25T01:45:11;8.20;99.90
20670;DHT22;10494;50.868;4.180;2023-04-25T01:47:37;8.20;99.90
20670;DHT22;10494;50.868;4.180;2023-04-25T01:50:04;8.20;99.90
20670;DHT22;10494;50.868;4.180;2023-04-25T01:52:30;8.20;99.90
20670;DHT22;10494;50.868;4.180;2023-04-25T01:54:57;8.20;99.90
20670;DHT22;10494;50.868;4.180;2023-04-25T01:57:23;8.20;99.90
20670;DHT22;10494;50.868;4.180;2023-04-25T01:59:49;8.10;99.90
20670;DHT22;10494;50.868;4.180;2023-04-25T02:02:15;8.10;99.90
20670;DHT22;10494;50.868;4.180;2023-04-25T02:04:41;8.00;99.90
20670;DHT22;10494;50.868;4.180;2023-04-25T02:07:06;8.00;99.90
20670;DHT22;10494;50.868;4.180;2023-04-25T02:09:32;7.90;99.90
20670;DHT22;10494;50.868;4.180;2023-04-25T02:11:58;7.90;99.90
20670;DHT22;10494;50.868;4.180;2023-04-25T02:14:23;8.00;99.90
20670;DHT22;10494;50.868;4.180;2023-04-25T02:16:49;8.00;99.90
20670;DHT22;10494;50.868;4.180;2023-04-25T02:19:16;7.90;99.90
20670;DHT22;10494;50.868;4.180;2023-04-25T02:21:42;7.90;99.90
20670;DHT22;10494;50.868;4.180;2023-04-25T02:24:08;8.00;99.90
20670;DHT22;10494;50.868;4.180;2023-04-25T02:26:34;8.00;99.90
20670;DHT22;10494;50.868;4.180;2023-04-25T02:28:59;8.00;99.90
20670;DHT22;10494;50.868;4.180;2023-04-25T02:31:26;7.90;99.90
20670;DHT22;10494;50.868;4.180;2023-04-25T02:33:52;7.90;99.90
20670;DHT22;10494;50.868;4.180;2023-04-25T02:36:17;7.90;99.90
20670;DHT22;10494;50.868;4.180;2023-04-25T02:38:43;7.90;99.90
20670;DHT22;10494;50.868;4.180;2023-04-25T02:41:09;7.80;99.90
20670;DHT22;10494;50.868;4.180;2023-04-25T02:43:34;7.80;99.90
20670;DHT22;10494;50.868;4.180;2023-04-25T02:46:00;7.90;99.90
20670;DHT22;10494;50.868;4.180;2023-04-25T02:48:26;8.00;99.90
20670;DHT22;10494;50.868;4.180;2023-04-25T02:50:51;8.00;99.90
20670;DHT22;10494;50.868;4.180;2023-04-25T02:53:17;8.10;99.90
20670;DHT22;10494;50.868;4.180;2023-04-25T02:55:42;8.10;99.90
20670;DHT22;10494;50.868;4.180;2023-04-25T02:58:08;7.90;99.90
20670;DHT22;10494;50.868;4.180;2023-04-25T03:00:34;8.00;99.90
20670;DHT22;10494;50.868;4.180;2023-04-25T03:02:59;7.80;99.90
20670;DHT22;10494;50.868;4.180;2023-04-25T03:05:25;7.60;99.90
20670;DHT22;10494;50.868;4.180;2023-04-25T03:07:51;7.60;99.90
20670;DHT22;10494;50.868;4.180;2023-04-25T03:10:16;7.60;99.90
20670;DHT22;10494;50.868;4.180;2023-04-25T03:12:42;7.60;99.90
20670;DHT22;10494;50.868;4.180;2023-04-25T03:15:07;7.50;99.90
20670;DHT22;10494;50.868;4.180;2023-04-25T03:17:33;7.40;99.90
20670;DHT22;10494;50.868;4.180;2023-04-25T03:19:59;7.40;99.90
20670;DHT22;10494;50.868;4.180;2023-04-25T03:22:25;7.30;99.90
20670;DHT22;10494;50.868;4.180;2023-04-25T03:24:50;7.20;99.90
20670;DHT22;10494;50.868;4.180;2023-04-25T03:27:17;7.20;99.90
20670;DHT22;10494;50.868;4.180;2023-04-25T03:29:42;7.30;99.90
20670;DHT22;10494;50.868;4.180;2023-04-25T03:32:08;7.30;99.90
20670;DHT22;10494;50.868;4.180;2023-04-25T03:34:34;7.30;99.90
20670;DHT22;10494;50.868;4.180;2023-04-25T03:37:00;7.20;99.90
20670;DHT22;10494;50.868;4.180;2023-04-25T03:39:26;7.10;99.90
20670;DHT22;10494;50.868;4.180;2023-04-25T03:41:52;7.10;99.90
20670;DHT22;10494;50.868;4.180;2023-04-25T03:44:18;7.20;99.90
20670;DHT22;10494;50.868;4.180;2023-04-25T03:46:43;7.20;99.90
20670;DHT22;10494;50.868;4.180;2023-04-25T03:49:09;7.20;99.90
20670;DHT22;10494;50.868;4.180;2023-04-25T03:51:34;7.20;99.90
20670;DHT22;10494;50.868;4.180;2023-04-25T03:54:00;7.20;99.90
20670;DHT22;10494;50.868;4.180;2023-04-25T03:56:26;7.20;99.90
20670;DHT22;10494;50.868;4.180;2023-04-25T03:58:51;7.20;99.90
20670;DHT22;10494;50.868;4.180;2023-04-25T04:01:17;7.30;99.90
20670;DHT22;10494;50.868;4.180;2023-04-25T04:03:43;7.40;99.90
20670;DHT22;10494;50.868;4.180;2023-04-25T04:06:09;7.50;99.90
20670;DHT22;10494;50.868;4.180;2023-04-25T04:08:34;7.50;99.90
20670;DHT22;10494;50.868;4.180;2023-04-25T04:11:00;7.60;99.90
20670;DHT22;10494;50.868;4.180;2023-04-25T04:13:27;7.70;99.90
20670;DHT22;10494;50.868;4.180;2023-04-25T04:15:53;7.80;99.90
20670;DHT22;10494;50.868;4.180;2023-04-25T04:18:19;7.80;99.90
20670;DHT22;10494;50.868;4.180;2023-04-25T04:20:44;7.90;99.90
20670;DHT22;10494;50.868;4.180;2023-04-25T04:23:10;7.90;99.90
20670;DHT22;10494;50.868;4.180;2023-04-25T04:25:36;8.00;99.90
20670;DHT22;10494;50.868;4.180;2023-04-25T04:28:02;8.20;99.90
20670;DHT22;10494;50.868;4.180;2023-04-25T04:30:28;8.30;99.90
20670;DHT22;10494;50.868;4.180;2023-04-25T04:32:57;8.30;99.90
20670;DHT22;10494;50.868;4.180;2023-04-25T04:35:23;8.30;99.90
20670;DHT22;10494;50.868;4.180;2023-04-25T04:37:49;8.30;99.90
20670;DHT22;10494;50.868;4.180;2023-04-25T04:40:15;8.20;99.90
20670;DHT22;10494;50.868;4.180;2023-04-25T04:42:42;7.90;99.90
20670;DHT22;10494;50.868;4.180;2023-04-25T04:45:08;7.50;99.90
20670;DHT22;10494;50.868;4.180;2023-04-25T04:47:35;7.30;99.90
20670;DHT22;10494;50.868;4.180;2023-04-25T04:50:03;7.10;99.90
20670;DHT22;10494;50.868;4.180;2023-04-25T04:52:29;7.10;99.90
20670;DHT22;10494;50.868;4.180;2023-04-25T04:54:55;7.10;99.90
20670;DHT22;10494;50.868;4.180;2023-04-25T04:57:21;7.00;99.90
20670;DHT22;10494;50.868;4.180;2023-04-25T04:59:46;7.10;99.90
20670;DHT22;10494;50.868;4.180;2023-04-25T05:02:12;7.10;99.90
20670;DHT22;10494;50.868;4.180;2023-04-25T05:04:37;7.00;99.90
20670;DHT22;10494;50.868;4.180;2023-04-25T05:07:03;7.00;99.90
20670;DHT22;10494;50.868;4.180;2023-04-25T05:09:29;7.00;99.90
20670;DHT22;10494;50.868;4.180;2023-04-25T05:11:54;7.00;99.90
20670;DHT22;10494;50.868;4.180;2023-04-25T05:14:20;7.00;99.90
20670;DHT22;10494;50.868;4.180;2023-04-25T05:16:47;7.20;99.90
20670;DHT22;10494;50.868;4.180;2023-04-25T05:19:13;7.40;99.90
20670;DHT22;10494;50.868;4.180;2023-04-25T05:21:38;7.50;99.90
20670;DHT22;10494;50.868;4.180;2023-04-25T05:24:04;7.60;99.90
20670;DHT22;10494;50.868;4.180;2023-04-25T05:26:30;7.40;99.90
20670;DHT22;10494;50.868;4.180;2023-04-25T05:28:59;7.30;99.90
20670;DHT22;10494;50.868;4.180;2023-04-25T05:31:25;7.20;99.90
20670;DHT22;10494;50.868;4.180;2023-04-25T05:33:51;7.30;99.90
20670;DHT22;10494;50.868;4.180;2023-04-25T05:36:19;7.30;99.90
20670;DHT22;10494;50.868;4.180;2023-04-25T05:38:45;7.20;99.90
20670;DHT22;10494;50.868;4.180;2023-04-25T05:41:10;7.20;99.90
20670;DHT22;10494;50.868;4.180;2023-04-25T05:43:36;7.10;99.90
20670;DHT22;10494;50.868;4.180;2023-04-25T05:46:02;7.20;99.90
20670;DHT22;10494;50.868;4.180;2023-04-25T05:48:28;7.20;99.90
20670;DHT22;10494;50.868;4.180;2023-04-25T05:50:53;7.10;99.90
20670;DHT22;10494;50.868;4.180;2023-04-25T05:53:19;7.20;99.90
20670;DHT22;10494;50.868;4.180;2023-04-25T05:55:46;7.20;99.90
20670;DHT22;10494;50.868;4.180;2023-04-25T05:58:12;7.30;99.90
20670;DHT22;10494;50.868;4.180;2023-04-25T06:00:37;7.30;99.90
20670;DHT22;10494;50.868;4.180;2023-04-25T06:03:03;7.30;99.90
20670;DHT22;10494;50.868;4.180;2023-04-25T06:05:29;7.30;99.90
20670;DHT22;10494;50.868;4.180;2023-04-25T06:07:55;7.30;99.90
20670;DHT22;10494;50.868;4.180;2023-04-25T06:10:21;7.50;99.90
20670;DHT22;10494;50.868;4.180;2023-04-25T06:12:47;7.50;99.90
20670;DHT22;10494;50.868;4.180;2023-04-25T06:15:13;7.50;99.90
20670;DHT22;10494;50.868;4.180;2023-04-25T06:17:39;7.50;99.90
20670;DHT22;10494;50.868;4.180;2023-04-25T06:20:05;7.50;99.90
20670;DHT22;10494;50.868;4.180;2023-04-25T06:22:31;7.50;99.90
20670;DHT22;10494;50.868;4.180;2023-04-25T06:24:57;7.70;99.90
20670;DHT22;10494;50.868;4.180;2023-04-25T06:27:24;8.20;99.90
20670;DHT22;10494;50.868;4.180;2023-04-25T06:29:50;8.40;99.90
20670;DHT22;10494;50.868;4.180;2023-04-25T06:32:15;8.50;99.90
20670;DHT22;10494;50.868;4.180;2023-04-25T06:34:43;8.40;99.90
20670;DHT22;10494;50.868;4.180;2023-04-25T06:37:09;8.40;99.90
20670;DHT22;10494;50.868;4.180;2023-04-25T06:39:34;8.20;99.90
20670;DHT22;10494;50.868;4.180;2023-04-25T06:42:00;8.20;99.90
20670;DHT22;10494;50.868;4.180;2023-04-25T06:44:26;8.40;99.90
20670;DHT22;10494;50.868;4.180;2023-04-25T06:46:54;8.60;99.90
20670;DHT22;10494;50.868;4.180;2023-04-25T06:49:19;9.00;99.90
20670;DHT22;10494;50.868;4.180;2023-04-25T06:51:45;9.30;99.90
20670;DHT22;10494;50.868;4.180;2023-04-25T06:54:10;9.60;99.90
20670;DHT22;10494;50.868;4.180;2023-04-25T06:56:36;9.20;99.90
20670;DHT22;10494;50.868;4.180;2023-04-25T06:59:02;9.20;99.90
20670;DHT22;10494;50.868;4.180;2023-04-25T07:01:27;9.20;99.90
20670;DHT22;10494;50.868;4.180;2023-04-25T07:03:53;9.10;99.90
20670;DHT22;10494;50.868;4.180;2023-04-25T07:06:19;8.80;99.90
20670;DHT22;10494;50.868;4.180;2023-04-25T07:08:44;9.20;99.90
20670;DHT22;10494;50.868;4.180;2023-04-25T07:11:10;9.00;99.90
20670;DHT22;10494;50.868;4.180;2023-04-25T07:13:35;8.90;99.90
20670;DHT22;10494;50.868;4.180;2023-04-25T07:16:01;8.80;99.90
20670;DHT22;10494;50.868;4.180;2023-04-25T07:18:28;8.50;99.90
20670;DHT22;10494;50.868;4.180;2023-04-25T07:20:54;8.40;99.90
20670;DHT22;10494;50.868;4.180;2023-04-25T07:23:19;8.50;99.90
20670;DHT22;10494;50.868;4.180;2023-04-25T07:25:45;8.90;99.90
20670;DHT22;10494;50.868;4.180;2023-04-25T07:28:11;8.80;99.90
20670;DHT22;10494;50.868;4.180;2023-04-25T07:30:37;8.70;99.90
20670;DHT22;10494;50.868;4.180;2023-04-25T07:33:03;9.20;99.90
20670;DHT22;10494;50.868;4.180;2023-04-25T07:35:28;9.00;99.90
20670;DHT22;10494;50.868;4.180;2023-04-25T07:37:54;9.20;99.90
20670;DHT22;10494;50.868;4.180;2023-04-25T07:40:20;9.50;99.90
20670;DHT22;10494;50.868;4.180;2023-04-25T07:42:46;9.50;99.90
20670;DHT22;10494;50.868;4.180;2023-04-25T07:45:12;8.80;99.90
20670;DHT22;10494;50.868;4.180;2023-04-25T07:47:38;8.70;99.90
20670;DHT22;10494;50.868;4.180;2023-04-25T07:50:04;8.90;99.90
20670;DHT22;10494;50.868;4.180;2023-04-25T07:52:30;9.10;99.90
20670;DHT22;10494;50.868;4.180;2023-04-25T07:54:55;8.90;99.90
20670;DHT22;10494;50.868;4.180;2023-04-25T07:57:23;8.70;99.90
20670;DHT22;10494;50.868;4.180;2023-04-25T07:59:49;8.90;99.90
20670;DHT22;10494;50.868;4.180;2023-04-25T08:02:15;8.80;99.90
20670;DHT22;10494;50.868;4.180;2023-04-25T08:04:40;8.90;99.90
20670;DHT22;10494;50.868;4.180;2023-04-25T08:07:06;9.20;99.90
20670;DHT22;10494;50.868;4.180;2023-04-25T08:09:32;9.60;99.90
20670;DHT22;10494;50.868;4.180;2023-04-25T08:12:02;9.90;99.90
20670;DHT22;10494;50.868;4.180;2023-04-25T08:14:28;10.00;99.90
20670;DHT22;10494;50.868;4.180;2023-04-25T08:16:56;10.50;99.90
20670;DHT22;10494;50.868;4.180;2023-04-25T08:19:22;10.60;99.90
20670;DHT22;10494;50.868;4.180;2023-04-25T08:21:48;10.00;99.90
20670;DHT22;10494;50.868;4.180;2023-04-25T08:24:13;9.80;99.90
20670;DHT22;10494;50.868;4.180;2023-04-25T08:26:39;10.60;99.90
20670;DHT22;10494;50.868;4.180;2023-04-25T08:29:06;11.20;99.90
20670;DHT22;10494;50.868;4.180;2023-04-25T08:31:31;11.40;99.90
20670;DHT22;10494;50.868;4.180;2023-04-25T08:33:57;11.90;99.90
20670;DHT22;10494;50.868;4.180;2023-04-25T08:36:23;13.60;99.90
20670;DHT22;10494;50.868;4.180;2023-04-25T08:38:49;12.80;99.90
20670;DHT22;10494;50.868;4.180;2023-04-25T08:41:15;11.80;99.90
20670;DHT22;10494;50.868;4.180;2023-04-25T08:43:42;11.50;99.90
20670;DHT22;10494;50.868;4.180;2023-04-25T08:46:09;11.90;99.90
20670;DHT22;10494;50.868;4.180;2023-04-25T08:48:36;11.90;99.90
20670;DHT22;10494;50.868;4.180;2023-04-25T08:51:02;11.80;99.90
20670;DHT22;10494;50.868;4.180;2023-04-25T08:53:33;11.70;99.90
20670;DHT22;10494;50.868;4.180;2023-04-25T08:56:00;11.60;99.90
20670;DHT22;10494;50.868;4.180;2023-04-25T08:58:29;11.30;99.90
20670;DHT22;10494;50.868;4.180;2023-04-25T09:00:55;11.10;99.90
20670;DHT22;10494;50.868;4.180;2023-04-25T09:03:21;11.20;99.90
20670;DHT22;10494;50.868;4.180;2023-04-25T09:05:47;11.30;99.90
20670;DHT22;10494;50.868;4.180;2023-04-25T09:08:12;10.70;99.90
20670;DHT22;10494;50.868;4.180;2023-04-25T09:10:40;10.50;99.90
20670;DHT22;10494;50.868;4.180;2023-04-25T09:13:12;10.70;99.90
20670;DHT22;10494;50.868;4.180;2023-04-25T09:15:49;10.20;99.90
20670;DHT22;10494;50.868;4.180;2023-04-25T09:20:48;10.50;99.90
20670;DHT22;10494;50.868;4.180;2023-04-25T09:23:14;9.80;99.90
20670;DHT22;10494;50.868;4.180;2023-04-25T09:25:40;9.50;99.90
20670;DHT22;10494;50.868;4.180;2023-04-25T09:28:08;9.50;99.90
20670;DHT22;10494;50.868;4.180;2023-04-25T09:30:35;10.50;99.90
20670;DHT22;10494;50.868;4.180;2023-04-25T09:33:05;11.60;99.90
20670;DHT22;10494;50.868;4.180;2023-04-25T09:35:36;12.90;99.90
20670;DHT22;10494;50.868;4.180;2023-04-25T09:38:16;12.10;99.90
20670;DHT22;10494;50.868;4.180;2023-04-25T09:40:45;12.30;99.90
20670;DHT22;10494;50.868;4.180;2023-04-25T09:43:24;12.30;99.90
20670;DHT22;10494;50.868;4.180;2023-04-25T09:45:51;11.50;99.90
20670;DHT22;10494;50.868;4.180;2023-04-25T09:48:19;10.50;99.90
20670;DHT22;10494;50.868;4.180;2023-04-25T09:51:31;10.70;99.90
20670;DHT22;10494;50.868;4.180;2023-04-25T09:53:37;11.10;99.90
20670;DHT22;10494;50.868;4.180;2023-04-25T09:56:04;12.90;99.90
20670;DHT22;10494;50.868;4.180;2023-04-25T09:58:31;14.10;99.90
20670;DHT22;10494;50.868;4.180;2023-04-25T10:01:01;12.80;99.90
20670;DHT22;10494;50.868;4.180;2023-04-25T10:03:30;13.60;99.90
20670;DHT22;10494;50.868;4.180;2023-04-25T10:05:59;13.30;99.90
20670;DHT22;10494;50.868;4.180;2023-04-25T10:08:26;13.60;99.90
20670;DHT22;10494;50.868;4.180;2023-04-25T10:10:57;13.10;99.90
20670;DHT22;10494;50.868;4.180;2023-04-25T10:13:23;13.80;95.80
20670;DHT22;10494;50.868;4.180;2023-04-25T10:15:50;14.10;94.10
20670;DHT22;10494;50.868;4.180;2023-04-25T10:18:18;13.90;92.60
20670;DHT22;10494;50.868;4.180;2023-04-25T10:20:45;13.80;93.20
20670;DHT22;10494;50.868;4.180;2023-04-25T10:23:14;13.10;95.40
20670;DHT22;10494;50.868;4.180;2023-04-25T10:25:41;11.70;99.90
20670;DHT22;10494;50.868;4.180;2023-04-25T10:28:07;11.10;99.90
20670;DHT22;10494;50.868;4.180;2023-04-25T10:30:33;10.70;99.90
20670;DHT22;10494;50.868;4.180;2023-04-25T10:32:59;10.60;99.90
20670;DHT22;10494;50.868;4.180;2023-04-25T10:35:29;10.40;99.90
20670;DHT22;10494;50.868;4.180;2023-04-25T10:38:10;9.70;99.90
20670;DHT22;10494;50.868;4.180;2023-04-25T10:40:38;9.20;99.90
20670;DHT22;10494;50.868;4.180;2023-04-25T10:45:59;8.80;99.90
20670;DHT22;10494;50.868;4.180;2023-04-25T10:48:34;9.00;99.90
20670;DHT22;10494;50.868;4.180;2023-04-25T10:51:19;8.90;99.90
20670;DHT22;10494;50.868;4.180;2023-04-25T10:53:46;8.70;99.90
20670;DHT22;10494;50.868;4.180;2023-04-25T10:56:19;8.90;99.90
20670;DHT22;10494;50.868;4.180;2023-04-25T10:58:48;9.10;99.90
20670;DHT22;10494;50.868;4.180;2023-04-25T11:01:15;8.90;99.90
20670;DHT22;10494;50.868;4.180;2023-04-25T11:03:44;8.90;99.90
20670;DHT22;10494;50.868;4.180;2023-04-25T11:06:36;9.00;99.90
20670;DHT22;10494;50.868;4.180;2023-04-25T11:09:10;9.20;99.90
20670;DHT22;10494;50.868;4.180;2023-04-25T11:11:38;9.20;99.90
20670;DHT22;10494;50.868;4.180;2023-04-25T11:14:04;9.30;99.90
20670;DHT22;10494;50.868;4.180;2023-04-25T11:16:30;9.30;99.90
20670;DHT22;10494;50.868;4.180;2023-04-25T11:18:57;9.10;99.90
20670;DHT22;10494;50.868;4.180;2023-04-25T11:21:24;9.10;99.90
20670;DHT22;10494;50.868;4.180;2023-04-25T11:23:51;9.30;99.90
20670;DHT22;10494;50.868;4.180;2023-04-25T11:26:19;9.60;99.90
20670;DHT22;10494;50.868;4.180;2023-04-25T11:28:45;10.00;99.90
20670;DHT22;10494;50.868;4.180;2023-04-25T11:31:12;10.00;99.90
20670;DHT22;10494;50.868;4.180;2023-04-25T11:33:38;9.40;99.90
20670;DHT22;10494;50.868;4.180;2023-04-25T11:36:06;9.50;99.90
20670;DHT22;10494;50.868;4.180;2023-04-25T11:38:32;9.70;99.90
20670;DHT22;10494;50.868;4.180;2023-04-25T11:40:57;9.80;99.90
20670;DHT22;10494;50.868;4.180;2023-04-25T11:43:25;10.10;99.90
20670;DHT22;10494;50.868;4.180;2023-04-25T11:45:50;9.80;99.90
20670;DHT22;10494;50.868;4.180;2023-04-25T11:48:17;9.30;99.90
20670;DHT22;10494;50.868;4.180;2023-04-25T11:50:43;9.60;99.90
20670;DHT22;10494;50.868;4.180;2023-04-25T11:53:09;9.80;99.90
20670;DHT22;10494;50.868;4.180;2023-04-25T11:55:36;10.70;99.90
20670;DHT22;10494;50.868;4.180;2023-04-25T11:58:02;11.40;99.90
20670;DHT22;10494;50.868;4.180;2023-04-25T12:00:28;11.30;99.90
20670;DHT22;10494;50.868;4.180;2023-04-25T12:02:55;10.70;99.90
20670;DHT22;10494;50.868;4.180;2023-04-25T12:05:27;10.90;99.90
20670;DHT22;10494;50.868;4.180;2023-04-25T12:07:54;10.60;99.90
20670;DHT22;10494;50.868;4.180;2023-04-25T12:10:20;10.50;99.90
20670;DHT22;10494;50.868;4.180;2023-04-25T12:12:47;11.00;99.90
20670;DHT22;10494;50.868;4.180;2023-04-25T12:17:45;11.30;99.90
20670;DHT22;10494;50.868;4.180;2023-04-25T12:20:25;11.70;99.90
20670;DHT22;10494;50.868;4.180;2023-04-25T12:22:51;11.60;99.90
20670;DHT22;10494;50.868;4.180;2023-04-25T12:25:40;11.00;99.90
20670;DHT22;10494;50.868;4.180;2023-04-25T12:28:24;11.20;99.90
20670;DHT22;10494;50.868;4.180;2023-04-25T12:31:02;11.60;99.90
20670;DHT22;10494;50.868;4.180;2023-04-25T12:33:36;11.50;99.90
20670;DHT22;10494;50.868;4.180;2023-04-25T12:36:04;12.00;99.90
20670;DHT22;10494;50.868;4.180;2023-04-25T12:38:39;12.20;99.90
20670;DHT22;10494;50.868;4.180;2023-04-25T12:41:05;12.40;99.90
20670;DHT22;10494;50.868;4.180;2023-04-25T12:43:31;12.90;99.90
20670;DHT22;10494;50.868;4.180;2023-04-25T12:45:56;13.10;99.90
20670;DHT22;10494;50.868;4.180;2023-04-25T12:48:23;13.20;99.90
20670;DHT22;10494;50.868;4.180;2023-04-25T12:50:49;13.50;99.90
20670;DHT22;10494;50.868;4.180;2023-04-25T12:53:16;13.00;99.90
20670;DHT22;10494;50.868;4.180;2023-04-25T12:55:42;12.70;99.90
20670;DHT22;10494;50.868;4.180;2023-04-25T12:58:08;11.00;99.90
20670;DHT22;10494;50.868;4.180;2023-04-25T13:00:34;10.80;99.90
20670;DHT22;10494;50.868;4.180;2023-04-25T13:02:59;10.60;99.90
20670;DHT22;10494;50.868;4.180;2023-04-25T13:05:26;10.60;99.90
20670;DHT22;10494;50.868;4.180;2023-04-25T13:07:51;10.70;99.90
20670;DHT22;10494;50.868;4.180;2023-04-25T13:10:17;10.90;99.90
20670;DHT22;10494;50.868;4.180;2023-04-25T13:12:43;10.90;99.90
20670;DHT22;10494;50.868;4.180;2023-04-25T13:15:09;10.60;99.90
20670;DHT22;10494;50.868;4.180;2023-04-25T13:17:37;10.50;99.90
20670;DHT22;10494;50.868;4.180;2023-04-25T13:20:04;11.00;99.90
20670;DHT22;10494;50.868;4.180;2023-04-25T13:22:34;11.30;99.90
20670;DHT22;10494;50.868;4.180;2023-04-25T13:25:02;11.50;99.90
20670;DHT22;10494;50.868;4.180;2023-04-25T13:27:28;11.40;99.90
20670;DHT22;10494;50.868;4.180;2023-04-25T13:29:54;11.60;99.90
20670;DHT22;10494;50.868;4.180;2023-04-25T13:32:20;12.00;99.90
20670;DHT22;10494;50.868;4.180;2023-04-25T13:34:45;12.60;99.90
20670;DHT22;10494;50.868;4.180;2023-04-25T13:37:11;12.80;99.90
20670;DHT22;10494;50.868;4.180;2023-04-25T13:39:37;12.60;99.90
20670;DHT22;10494;50.868;4.180;2023-04-25T13:42:02;11.80;99.90
20670;DHT22;10494;50.868;4.180;2023-04-25T13:44:28;11.00;99.90
20670;DHT22;10494;50.868;4.180;2023-04-25T13:46:54;10.60;99.90
20670;DHT22;10494;50.868;4.180;2023-04-25T13:49:19;10.40;99.90
20670;DHT22;10494;50.868;4.180;2023-04-25T13:51:45;10.20;99.90
20670;DHT22;10494;50.868;4.180;2023-04-25T13:54:11;10.50;99.90
20670;DHT22;10494;50.868;4.180;2023-04-25T13:56:36;10.70;99.90
20670;DHT22;10494;50.868;4.180;2023-04-25T13:59:02;10.60;99.90
20670;DHT22;10494;50.868;4.180;2023-04-25T14:01:28;10.90;99.90
20670;DHT22;10494;50.868;4.180;2023-04-25T14:03:55;11.40;99.90
20670;DHT22;10494;50.868;4.180;2023-04-25T14:06:21;11.40;99.90
20670;DHT22;10494;50.868;4.180;2023-04-25T14:08:50;11.10;99.90
20670;DHT22;10494;50.868;4.180;2023-04-25T14:11:15;11.10;99.90
20670;DHT22;10494;50.868;4.180;2023-04-25T14:13:43;11.40;99.90
20670;DHT22;10494;50.868;4.180;2023-04-25T14:16:09;11.60;99.90
20670;DHT22;10494;50.868;4.180;2023-04-25T14:18:35;11.60;99.90
20670;DHT22;10494;50.868;4.180;2023-04-25T14:21:01;12.00;99.90
20670;DHT22;10494;50.868;4.180;2023-04-25T14:23:26;11.80;99.90
20670;DHT22;10494;50.868;4.180;2023-04-25T14:25:52;11.20;99.90
20670;DHT22;10494;50.868;4.180;2023-04-25T14:28:18;11.00;99.90
20670;DHT22;10494;50.868;4.180;2023-04-25T14:30:43;11.20;99.90
20670;DHT22;10494;50.868;4.180;2023-04-25T14:33:09;11.70;99.90
20670;DHT22;10494;50.868;4.180;2023-04-25T14:35:35;11.70;99.90
20670;DHT22;10494;50.868;4.180;2023-04-25T14:38:01;11.80;99.90
20670;DHT22;10494;50.868;4.180;2023-04-25T14:40:26;11.90;99.90
20670;DHT22;10494;50.868;4.180;2023-04-25T14:42:52;12.00;99.90
20670;DHT22;10494;50.868;4.180;2023-04-25T14:45:18;11.80;99.90
20670;DHT22;10494;50.868;4.180;2023-04-25T14:47:45;11.40;99.90
20670;DHT22;10494;50.868;4.180;2023-04-25T14:50:11;10.90;99.90
20670;DHT22;10494;50.868;4.180;2023-04-25T14:52:36;10.70;99.90
20670;DHT22;10494;50.868;4.180;2023-04-25T14:55:03;11.00;99.90
20670;DHT22;10494;50.868;4.180;2023-04-25T14:57:33;11.10;99.90
20670;DHT22;10494;50.868;4.180;2023-04-25T14:59:58;10.60;99.90
20670;DHT22;10494;50.868;4.180;2023-04-25T15:02:24;10.50;99.90
20670;DHT22;10494;50.868;4.180;2023-04-25T15:04:51;10.60;99.90
20670;DHT22;10494;50.868;4.180;2023-04-25T15:07:17;11.00;99.90
20670;DHT22;10494;50.868;4.180;2023-04-25T15:09:42;10.70;99.90
20670;DHT22;10494;50.868;4.180;2023-04-25T15:12:08;10.60;99.90
20670;DHT22;10494;50.868;4.180;2023-04-25T15:14:34;10.80;99.90
20670;DHT22;10494;50.868;4.180;2023-04-25T15:17:00;10.80;99.90
20670;DHT22;10494;50.868;4.180;2023-04-25T15:19:26;10.80;99.90
20670;DHT22;10494;50.868;4.180;2023-04-25T15:21:52;11.00;99.90
20670;DHT22;10494;50.868;4.180;2023-04-25T15:24:18;11.00;99.90
20670;DHT22;10494;50.868;4.180;2023-04-25T15:26:44;11.20;99.90
20670;DHT22;10494;50.868;4.180;2023-04-25T15:29:11;11.40;99.90
20670;DHT22;10494;50.868;4.180;2023-04-25T15:31:37;11.90;99.90
20670;DHT22;10494;50.868;4.180;2023-04-25T15:34:03;12.20;99.90
20670;DHT22;10494;50.868;4.180;2023-04-25T15:36:28;12.30;99.90
20670;DHT22;10494;50.868;4.180;2023-04-25T15:38:54;12.30;99.90
20670;DHT22;10494;50.868;4.180;2023-04-25T15:41:21;12.00;99.90
20670;DHT22;10494;50.868;4.180;2023-04-25T15:43:47;11.70;99.90